x

Ne Burgeo Bank (44255) Wave Buoy

2:00pm - Fri 30th Sep 2016 All times are ADT. -3 hours from GMT.

  • Sig Wave height 3.9ft
  • Peak Period 11s
  • Wind
    18mph, 22mph gusts
  • Sea Temp 55°f
  • Sea Pressure 1026mb
  • Ne Burgeo Bank
  • Ne Burgeo Bank

More Historic Weather Station data

Upgrade to MSW Pro to gain access to the past 30 days of data for over 8000 Wavebouys and Weather Stations around the globe.

Join Pro

Comparision Forecast

View Surf forecast
   
Fri 09/30 2:00pm 4ft 11s 18 22 mph 1026mb 55f
1:00pm 4ft 11s 20 25 mph 1026.5mb 55f
12:00pm 4ft 11s 20 22 mph 1026.7mb 55f
11:00am 4.5ft 11s 18 22 mph 1027mb 55f
10:00am 4ft 11s 16 20 mph 1027.2mb 55f
9:00am 3.5ft 12s 20 22 mph 1026.9mb 55f
8:00am 4ft 12s 18 22 mph 1026.5mb 56f
7:00am 4.5ft 12s 18 22 mph 1026.2mb 56f
6:00am 3.5ft 12s 20 25 mph 1025.9mb 56f
5:00am 3.5ft 12s 22 27 mph 1025.8mb 56f
4:00am 3.5ft 4s 22 27 mph 1025.8mb 56f
3:00am 3.5ft  -  20 25 mph 1026.4mb 56f
2:00am 3ft  -  18 20 mph 1026.8mb 56f
1:00am 3.5ft 5s 13 16 mph 1027mb 56f
12:00am 4ft 6s 20 25 mph 1026.8mb 56f
Thu 09/29 11:00pm 4.5ft 5s 18 22 mph 1026.9mb 56f
10:00pm 4.5ft 4s 22 27 mph 1026.7mb 55f
9:00pm 5ft 5s 20 25 mph 1026.6mb 55f
8:00pm 5ft 5s 25 31 mph 1025.9mb 55f
7:00pm 5ft 5s 22
mph
1025.9mb 55f
6:00pm 5ft 5s 25 31 mph 1025.6mb 55f
5:00pm 5ft 6s 22 27 mph 1025.7mb 55f
4:00pm 6ft 6s 18 22 mph 1025.5mb 55f
3:00pm  -   -  22
mph
1025mb 55f
2:00pm 6ft 5s 31 38 mph 1024.9mb 56f
1:00pm 5.5ft 6s 25 31 mph 1026.6mb 56f
12:00pm 5.5ft 6s 22 25 mph 1027.2mb 56f
11:00am 6ft 6s 22 27 mph 1026.8mb 56f
10:00am 6ft 6s 22 27 mph 1028mb 56f
9:00am 6ft 6s 22 27 mph 1028.3mb 55f
8:00am 6ft 6s 22 29 mph 1028.8mb 55f
7:00am 6ft 6s 25 29 mph 1029mb 55f
6:00am 6ft 5s 22 27 mph 1029.7mb 55f
5:00am 6.5ft 6s 22 27 mph 1030.1mb 54f
4:00am 6ft 6s 25 29 mph 1030.6mb 54f
3:00am 6ft 6s 25 29 mph 1031.1mb 54f
2:00am 6.5ft 5s 25 29 mph 1031.6mb 54f
1:00am 6ft 5s 25 29 mph 1032.1mb 54f
12:00am 6ft 5s 22 27 mph 1032.5mb 54f
Wed 09/28 11:00pm 5ft 4s 20 25 mph 1032.9mb 55f
10:00pm 4.5ft 5s 20 27 mph 1032.5mb 55f
9:00pm 4.5ft 5s 20 25 mph 1032.3mb 54f
8:00pm 4.5ft 5s 20 25 mph 1032.1mb 54f
7:00pm 4.5ft 5s 18 22 mph 1032.1mb 53f
6:00pm 4.5ft 6s 18 22 mph 1032mb 53f
5:00pm 4.5ft 6s 20 25 mph 1031.7mb 53f
4:00pm 4.5ft 6s 20 25 mph 1031.2mb 53f
3:00pm 5.5ft 6s 20 25 mph 1031.1mb 53f
2:00pm 5ft 6s 22
mph
1030.7mb 53f
1:00pm 5ft 5s 22 27 mph 1030.3mb 53f
12:00pm 5ft 5s 25 29 mph 1030mb 53f
11:00am 5ft 5s 22 27 mph 1030.3mb 53f
10:00am 5ft 5s 22 27 mph 1030.1mb 53f
9:00am 4.5ft 5s 22 27 mph 1029.6mb 53f
8:00am 4.5ft 5s 20 27 mph 1028.8mb 53f
7:00am 4.5ft 4s 20 25 mph 1027.8mb 53f
6:00am 4.5ft 7s 18 22 mph 1026.9mb 53f
5:00am 4.5ft 7s 20 22 mph 1025.6mb 53f
4:00am  -   -  18
mph
- -
3:00am 4.5ft 7s 18 22 mph 1024.5mb 53f
2:00am 4.5ft 8s 18 20 mph 1024.1mb 53f
1:00am 4.5ft 7s 16 18 mph 1023.2mb 53f
12:00am 4.5ft 7s 13 16 mph 1022.6mb 53f
Tue 09/27 11:00pm 4.5ft 7s 9 13 mph 1021.9mb 53f
10:00pm 4.5ft 7s 11 13 mph 1020.6mb 53f
9:00pm 4.5ft 7s 9 13 mph 1019.5mb 53f
8:00pm 4.5ft 7s 18 22 mph 1017.8mb 53f
7:00pm 5ft 8s 13 16 mph 1016.6mb 53f
6:00pm 4.5ft 7s 16 18 mph 1015.7mb 53f
5:00pm 4ft 6s 13 18 mph 1014mb 53f
4:00pm 3.5ft 5s 9 11 mph 1013.1mb 54f
3:00pm 3.5ft 5s 4 7 mph 1012.3mb 54f
2:00pm 3.5ft 6s 4 9 mph 1012mb 54f
1:00pm 3.5ft 6s 11 13 mph 1011.3mb 53f
12:00pm 4ft 6s 13 16 mph 1011mb 53f
11:00am 4ft 5s 7 11 mph 1009.7mb 53f
10:00am 4.5ft 7s 2 4 mph 1010.1mb 53f
9:00am 4.5ft 6s 9 11 mph 1010.2mb 53f
8:00am 5ft 5s 16 18 mph 1009.9mb 53f
7:00am 5ft 5s 18 22 mph 1009.2mb 53f
6:00am 5ft 5s 18 22 mph 1009.1mb 53f
5:00am 5ft 5s 18 22 mph 1009mb 53f
4:00am 5ft 5s 16 20 mph 1008.9mb 53f
3:00am 5ft 5s 18 22 mph 1009.1mb 53f
2:00am 4.5ft 12s 18 22 mph 1009.2mb 53f
1:00am 5ft 11s 18 20 mph 1009.5mb 53f
12:00am 4.5ft 12s 18 22 mph 1009.8mb 53f
Mon 09/26 11:00pm 5ft 12s 18 22 mph 1010.3mb 53f
10:00pm 5ft 6s 16 20 mph 1010.2mb 53f
9:00pm 5.5ft 5s 18 20 mph 1010.1mb 53f
8:00pm 5.5ft 14s 20 22 mph 1009.6mb 53f
7:00pm 5.5ft 13s 22 29 mph 1008.7mb 53f